sensor_id;sensor_type;location;lat;lon;timestamp;P1;durP1;ratioP1;P2;durP2;ratioP2
48241;SDS011;34041;51.812;4.622;2023-12-04T00:02:45;14.53;;;8.63;;
48241;SDS011;34041;51.812;4.622;2023-12-04T00:05:45;12.40;;;8.57;;
48241;SDS011;34041;51.812;4.622;2023-12-04T00:08:46;13.10;;;8.00;;
48241;SDS011;34041;51.812;4.622;2023-12-04T00:11:46;13.73;;;8.60;;
48241;SDS011;34041;51.812;4.622;2023-12-04T00:14:46;13.90;;;9.43;;
48241;SDS011;34041;51.812;4.622;2023-12-04T00:17:46;14.27;;;9.30;;
48241;SDS011;34041;51.812;4.622;2023-12-04T00:20:47;15.48;;;9.63;;
48241;SDS011;34041;51.812;4.622;2023-12-04T00:23:47;12.27;;;8.52;;
48241;SDS011;34041;51.812;4.622;2023-12-04T00:26:47;15.32;;;8.45;;
48241;SDS011;34041;51.812;4.622;2023-12-04T00:29:47;13.63;;;8.82;;
48241;SDS011;34041;51.812;4.622;2023-12-04T00:32:47;14.53;;;8.90;;
48241;SDS011;34041;51.812;4.622;2023-12-04T00:35:48;16.98;;;8.38;;
48241;SDS011;34041;51.812;4.622;2023-12-04T00:38:48;13.93;;;7.80;;
48241;SDS011;34041;51.812;4.622;2023-12-04T00:41:48;15.02;;;8.88;;
48241;SDS011;34041;51.812;4.622;2023-12-04T00:44:49;13.50;;;8.50;;
48241;SDS011;34041;51.812;4.622;2023-12-04T00:47:49;12.63;;;7.60;;
48241;SDS011;34041;51.812;4.622;2023-12-04T00:50:50;13.93;;;8.10;;
48241;SDS011;34041;51.812;4.622;2023-12-04T00:53:51;12.10;;;8.45;;
48241;SDS011;34041;51.812;4.622;2023-12-04T00:56:51;12.05;;;7.75;;
48241;SDS011;34041;51.812;4.622;2023-12-04T00:59:51;10.60;;;7.83;;
48241;SDS011;34041;51.812;4.622;2023-12-04T01:02:51;15.10;;;8.55;;
48241;SDS011;34041;51.812;4.622;2023-12-04T01:05:51;14.97;;;8.40;;
48241;SDS011;34041;51.812;4.622;2023-12-04T01:08:53;15.82;;;8.60;;
48241;SDS011;34041;51.812;4.622;2023-12-04T01:11:53;14.07;;;8.30;;
48241;SDS011;34041;51.812;4.622;2023-12-04T01:14:53;12.00;;;7.70;;
48241;SDS011;34041;51.812;4.622;2023-12-04T01:17:54;11.25;;;7.53;;
48241;SDS011;34041;51.812;4.622;2023-12-04T01:20:54;12.60;;;8.00;;
48241;SDS011;34041;51.812;4.622;2023-12-04T01:23:54;10.63;;;7.25;;
48241;SDS011;34041;51.812;4.622;2023-12-04T01:26:54;14.10;;;8.30;;
48241;SDS011;34041;51.812;4.622;2023-12-04T01:29:55;12.50;;;7.40;;
48241;SDS011;34041;51.812;4.622;2023-12-04T01:32:55;15.45;;;9.13;;
48241;SDS011;34041;51.812;4.622;2023-12-04T01:35:55;11.33;;;7.17;;
48241;SDS011;34041;51.812;4.622;2023-12-04T01:38:56;15.18;;;9.05;;
48241;SDS011;34041;51.812;4.622;2023-12-04T01:41:56;13.63;;;8.33;;
48241;SDS011;34041;51.812;4.622;2023-12-04T01:44:56;12.05;;;7.20;;
48241;SDS011;34041;51.812;4.622;2023-12-04T01:47:57;9.48;;;6.22;;
48241;SDS011;34041;51.812;4.622;2023-12-04T01:50:57;13.50;;;8.73;;
48241;SDS011;34041;51.812;4.622;2023-12-04T01:53:58;10.80;;;6.90;;
48241;SDS011;34041;51.812;4.622;2023-12-04T01:56:59;12.07;;;7.63;;
48241;SDS011;34041;51.812;4.622;2023-12-04T01:59:59;12.25;;;7.43;;
48241;SDS011;34041;51.812;4.622;2023-12-04T02:02:59;10.18;;;7.22;;
48241;SDS011;34041;51.812;4.622;2023-12-04T02:06:00;14.30;;;7.80;;
48241;SDS011;34041;51.812;4.622;2023-12-04T02:09:02;12.57;;;7.38;;
48241;SDS011;34041;51.812;4.622;2023-12-04T02:12:03;13.23;;;7.88;;
48241;SDS011;34041;51.812;4.622;2023-12-04T02:15:03;10.85;;;7.07;;
48241;SDS011;34041;51.812;4.622;2023-12-04T02:18:04;12.57;;;7.35;;
48241;SDS011;34041;51.812;4.622;2023-12-04T02:21:04;11.43;;;7.00;;
48241;SDS011;34041;51.812;4.622;2023-12-04T02:24:04;11.40;;;6.57;;
48241;SDS011;34041;51.812;4.622;2023-12-04T02:27:10;12.40;;;7.38;;
48241;SDS011;34041;51.812;4.622;2023-12-04T02:30:12;10.85;;;7.30;;
48241;SDS011;34041;51.812;4.622;2023-12-04T02:33:13;9.75;;;6.45;;
48241;SDS011;34041;51.812;4.622;2023-12-04T02:36:13;10.43;;;6.70;;
48241;SDS011;34041;51.812;4.622;2023-12-04T02:39:14;13.20;;;7.60;;
48241;SDS011;34041;51.812;4.622;2023-12-04T02:42:14;10.20;;;6.80;;
48241;SDS011;34041;51.812;4.622;2023-12-04T02:45:17;12.30;;;7.47;;
48241;SDS011;34041;51.812;4.622;2023-12-04T02:48:17;9.38;;;5.97;;
48241;SDS011;34041;51.812;4.622;2023-12-04T02:51:17;10.55;;;6.13;;
48241;SDS011;34041;51.812;4.622;2023-12-04T02:54:17;11.73;;;6.88;;
48241;SDS011;34041;51.812;4.622;2023-12-04T02:57:17;10.17;;;6.47;;
48241;SDS011;34041;51.812;4.622;2023-12-04T03:00:18;10.38;;;6.45;;
48241;SDS011;34041;51.812;4.622;2023-12-04T03:03:18;10.40;;;5.88;;
48241;SDS011;34041;51.812;4.622;2023-12-04T03:06:18;9.05;;;6.18;;
48241;SDS011;34041;51.812;4.622;2023-12-04T03:09:19;9.80;;;6.53;;
48241;SDS011;34041;51.812;4.622;2023-12-04T03:12:19;12.17;;;7.57;;
48241;SDS011;34041;51.812;4.622;2023-12-04T03:15:19;11.37;;;6.47;;
48241;SDS011;34041;51.812;4.622;2023-12-04T03:18:19;10.20;;;6.07;;
48241;SDS011;34041;51.812;4.622;2023-12-04T03:21:19;11.23;;;6.68;;
48241;SDS011;34041;51.812;4.622;2023-12-04T03:24:20;8.40;;;6.13;;
48241;SDS011;34041;51.812;4.622;2023-12-04T03:27:20;9.88;;;6.18;;
48241;SDS011;34041;51.812;4.622;2023-12-04T03:30:20;8.23;;;5.60;;
48241;SDS011;34041;51.812;4.622;2023-12-04T03:33:21;10.70;;;6.88;;
48241;SDS011;34041;51.812;4.622;2023-12-04T03:36:21;11.30;;;5.30;;
48241;SDS011;34041;51.812;4.622;2023-12-04T03:39:21;10.43;;;5.57;;
48241;SDS011;34041;51.812;4.622;2023-12-04T03:42:21;10.45;;;6.40;;
48241;SDS011;34041;51.812;4.622;2023-12-04T03:45:21;8.40;;;5.40;;
48241;SDS011;34041;51.812;4.622;2023-12-04T03:48:22;9.93;;;6.23;;
48241;SDS011;34041;51.812;4.622;2023-12-04T03:51:22;9.65;;;5.97;;
48241;SDS011;34041;51.812;4.622;2023-12-04T03:54:22;11.15;;;6.18;;
48241;SDS011;34041;51.812;4.622;2023-12-04T03:57:22;9.90;;;5.63;;
48241;SDS011;34041;51.812;4.622;2023-12-04T04:00:23;8.93;;;5.60;;
48241;SDS011;34041;51.812;4.622;2023-12-04T04:03:23;9.73;;;5.35;;
48241;SDS011;34041;51.812;4.622;2023-12-04T04:06:23;11.23;;;5.65;;
48241;SDS011;34041;51.812;4.622;2023-12-04T04:09:23;9.52;;;5.85;;
48241;SDS011;34041;51.812;4.622;2023-12-04T04:12:24;10.13;;;5.78;;
48241;SDS011;34041;51.812;4.622;2023-12-04T04:15:24;8.43;;;5.60;;
48241;SDS011;34041;51.812;4.622;2023-12-04T04:18:24;9.57;;;5.90;;
48241;SDS011;34041;51.812;4.622;2023-12-04T04:21:24;10.35;;;5.28;;
48241;SDS011;34041;51.812;4.622;2023-12-04T04:24:25;10.07;;;6.15;;
48241;SDS011;34041;51.812;4.622;2023-12-04T04:27:25;14.27;;;6.15;;
48241;SDS011;34041;51.812;4.622;2023-12-04T04:30:25;7.55;;;5.72;;
48241;SDS011;34041;51.812;4.622;2023-12-04T04:33:25;10.13;;;6.53;;
48241;SDS011;34041;51.812;4.622;2023-12-04T04:36:25;11.50;;;5.70;;
48241;SDS011;34041;51.812;4.622;2023-12-04T04:39:26;9.00;;;5.90;;
48241;SDS011;34041;51.812;4.622;2023-12-04T04:42:26;12.70;;;6.63;;
48241;SDS011;34041;51.812;4.622;2023-12-04T04:45:26;9.32;;;6.78;;
48241;SDS011;34041;51.812;4.622;2023-12-04T04:48:26;8.83;;;5.77;;
48241;SDS011;34041;51.812;4.622;2023-12-04T04:51:27;9.60;;;6.25;;
48241;SDS011;34041;51.812;4.622;2023-12-04T04:54:30;10.52;;;6.53;;
48241;SDS011;34041;51.812;4.622;2023-12-04T04:57:30;10.48;;;6.03;;
48241;SDS011;34041;51.812;4.622;2023-12-04T05:00:31;7.05;;;4.65;;
48241;SDS011;34041;51.812;4.622;2023-12-04T05:03:31;11.05;;;6.15;;
48241;SDS011;34041;51.812;4.622;2023-12-04T05:06:31;10.93;;;6.88;;
48241;SDS011;34041;51.812;4.622;2023-12-04T05:09:31;10.90;;;6.50;;
48241;SDS011;34041;51.812;4.622;2023-12-04T05:12:32;8.93;;;5.77;;
48241;SDS011;34041;51.812;4.622;2023-12-04T05:15:32;9.43;;;5.50;;
48241;SDS011;34041;51.812;4.622;2023-12-04T05:18:32;9.13;;;6.53;;
48241;SDS011;34041;51.812;4.622;2023-12-04T05:21:32;11.68;;;7.25;;
48241;SDS011;34041;51.812;4.622;2023-12-04T05:24:33;9.55;;;5.82;;
48241;SDS011;34041;51.812;4.622;2023-12-04T05:27:33;11.10;;;6.63;;
48241;SDS011;34041;51.812;4.622;2023-12-04T05:30:33;10.33;;;6.23;;
48241;SDS011;34041;51.812;4.622;2023-12-04T05:33:33;11.75;;;7.30;;
48241;SDS011;34041;51.812;4.622;2023-12-04T05:36:33;10.50;;;7.55;;
48241;SDS011;34041;51.812;4.622;2023-12-04T05:39:34;9.13;;;6.70;;
48241;SDS011;34041;51.812;4.622;2023-12-04T05:42:34;10.47;;;6.63;;
48241;SDS011;34041;51.812;4.622;2023-12-04T05:45:34;11.85;;;6.97;;
48241;SDS011;34041;51.812;4.622;2023-12-04T05:48:34;13.73;;;6.82;;
48241;SDS011;34041;51.812;4.622;2023-12-04T05:51:35;12.52;;;6.55;;
48241;SDS011;34041;51.812;4.622;2023-12-04T05:54:35;12.18;;;7.20;;
48241;SDS011;34041;51.812;4.622;2023-12-04T05:57:38;9.68;;;7.10;;
48241;SDS011;34041;51.812;4.622;2023-12-04T06:00:38;9.25;;;6.25;;
48241;SDS011;34041;51.812;4.622;2023-12-04T06:03:39;11.23;;;6.80;;
48241;SDS011;34041;51.812;4.622;2023-12-04T06:06:39;9.90;;;6.38;;
48241;SDS011;34041;51.812;4.622;2023-12-04T06:09:39;10.10;;;7.18;;
48241;SDS011;34041;51.812;4.622;2023-12-04T06:12:39;10.18;;;5.85;;
48241;SDS011;34041;51.812;4.622;2023-12-04T06:15:40;8.87;;;5.47;;
48241;SDS011;34041;51.812;4.622;2023-12-04T06:18:40;8.80;;;6.05;;
48241;SDS011;34041;51.812;4.622;2023-12-04T06:21:40;8.77;;;5.45;;
48241;SDS011;34041;51.812;4.622;2023-12-04T06:24:41;8.52;;;5.75;;
48241;SDS011;34041;51.812;4.622;2023-12-04T06:27:42;9.55;;;5.22;;
48241;SDS011;34041;51.812;4.622;2023-12-04T06:30:42;7.97;;;5.95;;
48241;SDS011;34041;51.812;4.622;2023-12-04T06:33:43;9.35;;;6.13;;
48241;SDS011;34041;51.812;4.622;2023-12-04T06:36:43;9.27;;;6.07;;
48241;SDS011;34041;51.812;4.622;2023-12-04T06:39:44;7.93;;;5.88;;
48241;SDS011;34041;51.812;4.622;2023-12-04T06:42:45;10.68;;;6.30;;
48241;SDS011;34041;51.812;4.622;2023-12-04T06:45:45;9.23;;;5.15;;
48241;SDS011;34041;51.812;4.622;2023-12-04T06:48:45;9.85;;;5.93;;
48241;SDS011;34041;51.812;4.622;2023-12-04T06:51:48;7.97;;;5.55;;
48241;SDS011;34041;51.812;4.622;2023-12-04T06:54:48;9.50;;;5.35;;
48241;SDS011;34041;51.812;4.622;2023-12-04T06:57:48;9.17;;;5.93;;
48241;SDS011;34041;51.812;4.622;2023-12-04T07:00:49;8.60;;;5.83;;
48241;SDS011;34041;51.812;4.622;2023-12-04T07:03:49;9.90;;;5.88;;
48241;SDS011;34041;51.812;4.622;2023-12-04T07:06:50;9.77;;;6.65;;
48241;SDS011;34041;51.812;4.622;2023-12-04T07:09:50;10.13;;;5.63;;
48241;SDS011;34041;51.812;4.622;2023-12-04T07:12:51;7.63;;;5.10;;
48241;SDS011;34041;51.812;4.622;2023-12-04T07:15:51;7.37;;;5.17;;
48241;SDS011;34041;51.812;4.622;2023-12-04T07:18:51;7.43;;;5.43;;
48241;SDS011;34041;51.812;4.622;2023-12-04T07:21:51;8.52;;;5.50;;
48241;SDS011;34041;51.812;4.622;2023-12-04T07:24:51;8.43;;;5.20;;
48241;SDS011;34041;51.812;4.622;2023-12-04T07:27:52;8.70;;;6.33;;
48241;SDS011;34041;51.812;4.622;2023-12-04T07:30:54;9.50;;;4.93;;
48241;SDS011;34041;51.812;4.622;2023-12-04T07:33:54;7.55;;;5.10;;
48241;SDS011;34041;51.812;4.622;2023-12-04T07:36:54;8.23;;;5.32;;
48241;SDS011;34041;51.812;4.622;2023-12-04T07:39:55;8.88;;;5.50;;
48241;SDS011;34041;51.812;4.622;2023-12-04T07:42:55;7.27;;;4.80;;
48241;SDS011;34041;51.812;4.622;2023-12-04T07:45:55;10.73;;;5.73;;
48241;SDS011;34041;51.812;4.622;2023-12-04T07:48:56;11.25;;;6.47;;
48241;SDS011;34041;51.812;4.622;2023-12-04T07:51:56;8.60;;;5.55;;
48241;SDS011;34041;51.812;4.622;2023-12-04T07:54:57;8.75;;;5.10;;
48241;SDS011;34041;51.812;4.622;2023-12-04T07:57:57;8.60;;;5.37;;
48241;SDS011;34041;51.812;4.622;2023-12-04T08:00:58;7.68;;;5.20;;
48241;SDS011;34041;51.812;4.622;2023-12-04T08:03:59;9.50;;;5.35;;
48241;SDS011;34041;51.812;4.622;2023-12-04T08:06:59;9.38;;;5.50;;
48241;SDS011;34041;51.812;4.622;2023-12-04T08:09:59;8.77;;;4.93;;
48241;SDS011;34041;51.812;4.622;2023-12-04T08:12:59;6.93;;;4.70;;
48241;SDS011;34041;51.812;4.622;2023-12-04T08:16:00;6.82;;;5.45;;
48241;SDS011;34041;51.812;4.622;2023-12-04T08:19:00;8.02;;;5.53;;
48241;SDS011;34041;51.812;4.622;2023-12-04T08:22:01;9.93;;;6.15;;
48241;SDS011;34041;51.812;4.622;2023-12-04T08:25:01;9.37;;;4.97;;
48241;SDS011;34041;51.812;4.622;2023-12-04T08:28:01;10.30;;;5.87;;
48241;SDS011;34041;51.812;4.622;2023-12-04T08:31:02;10.30;;;6.07;;
48241;SDS011;34041;51.812;4.622;2023-12-04T08:34:02;7.05;;;5.07;;
48241;SDS011;34041;51.812;4.622;2023-12-04T08:37:03;7.90;;;5.18;;
48241;SDS011;34041;51.812;4.622;2023-12-04T08:40:03;8.35;;;4.55;;
48241;SDS011;34041;51.812;4.622;2023-12-04T08:43:03;8.75;;;5.80;;
48241;SDS011;34041;51.812;4.622;2023-12-04T08:46:04;7.82;;;5.00;;
48241;SDS011;34041;51.812;4.622;2023-12-04T08:49:04;9.27;;;6.05;;
48241;SDS011;34041;51.812;4.622;2023-12-04T08:52:04;9.07;;;5.80;;
48241;SDS011;34041;51.812;4.622;2023-12-04T08:55:05;8.20;;;5.82;;
48241;SDS011;34041;51.812;4.622;2023-12-04T08:58:07;12.27;;;5.72;;
48241;SDS011;34041;51.812;4.622;2023-12-04T09:01:07;8.25;;;5.30;;
48241;SDS011;34041;51.812;4.622;2023-12-04T09:04:08;8.55;;;5.22;;
48241;SDS011;34041;51.812;4.622;2023-12-04T09:07:08;7.72;;;5.10;;
48241;SDS011;34041;51.812;4.622;2023-12-04T09:10:08;8.95;;;5.55;;
48241;SDS011;34041;51.812;4.622;2023-12-04T09:13:09;12.65;;;6.20;;
48241;SDS011;34041;51.812;4.622;2023-12-04T09:16:09;7.40;;;4.95;;
48241;SDS011;34041;51.812;4.622;2023-12-04T09:19:10;8.02;;;5.18;;
48241;SDS011;34041;51.812;4.622;2023-12-04T09:22:10;9.07;;;5.60;;
48241;SDS011;34041;51.812;4.622;2023-12-04T09:25:10;8.40;;;5.22;;
48241;SDS011;34041;51.812;4.622;2023-12-04T09:28:11;8.48;;;5.72;;
48241;SDS011;34041;51.812;4.622;2023-12-04T09:31:11;7.60;;;4.22;;
48241;SDS011;34041;51.812;4.622;2023-12-04T09:34:11;6.60;;;4.53;;
48241;SDS011;34041;51.812;4.622;2023-12-04T09:37:11;12.82;;;5.57;;
48241;SDS011;34041;51.812;4.622;2023-12-04T09:40:12;8.33;;;5.10;;
48241;SDS011;34041;51.812;4.622;2023-12-04T09:43:12;7.68;;;4.95;;
48241;SDS011;34041;51.812;4.622;2023-12-04T09:46:13;7.57;;;4.68;;
48241;SDS011;34041;51.812;4.622;2023-12-04T09:49:14;7.07;;;4.75;;
48241;SDS011;34041;51.812;4.622;2023-12-04T09:52:14;8.07;;;4.68;;
48241;SDS011;34041;51.812;4.622;2023-12-04T09:55:15;7.80;;;4.90;;
48241;SDS011;34041;51.812;4.622;2023-12-04T09:58:15;6.40;;;4.15;;
48241;SDS011;34041;51.812;4.622;2023-12-04T10:01:19;6.57;;;4.10;;
48241;SDS011;34041;51.812;4.622;2023-12-04T10:04:19;8.55;;;5.57;;
48241;SDS011;34041;51.812;4.622;2023-12-04T10:07:21;10.00;;;5.38;;
48241;SDS011;34041;51.812;4.622;2023-12-04T10:10:21;8.27;;;4.80;;
48241;SDS011;34041;51.812;4.622;2023-12-04T10:13:21;6.57;;;4.77;;
48241;SDS011;34041;51.812;4.622;2023-12-04T10:16:34;7.15;;;4.50;;
48241;SDS011;34041;51.812;4.622;2023-12-04T10:19:35;6.78;;;5.28;;
48241;SDS011;34041;51.812;4.622;2023-12-04T10:22:35;8.33;;;5.60;;
48241;SDS011;34041;51.812;4.622;2023-12-04T10:25:35;8.43;;;4.60;;
48241;SDS011;34041;51.812;4.622;2023-12-04T10:28:35;6.90;;;3.97;;
48241;SDS011;34041;51.812;4.622;2023-12-04T10:31:36;6.68;;;4.95;;
48241;SDS011;34041;51.812;4.622;2023-12-04T10:34:36;7.28;;;4.68;;
48241;SDS011;34041;51.812;4.622;2023-12-04T10:37:36;8.57;;;4.80;;
48241;SDS011;34041;51.812;4.622;2023-12-04T10:40:37;5.53;;;3.72;;
48241;SDS011;34041;51.812;4.622;2023-12-04T10:43:38;6.72;;;5.07;;
48241;SDS011;34041;51.812;4.622;2023-12-04T10:46:46;8.25;;;5.43;;
48241;SDS011;34041;51.812;4.622;2023-12-04T10:49:48;6.05;;;4.22;;
48241;SDS011;34041;51.812;4.622;2023-12-04T10:52:49;6.85;;;4.43;;
48241;SDS011;34041;51.812;4.622;2023-12-04T10:55:52;6.50;;;4.75;;
48241;SDS011;34041;51.812;4.622;2023-12-04T10:58:56;7.18;;;4.60;;
48241;SDS011;34041;51.812;4.622;2023-12-04T11:01:58;7.85;;;5.20;;
48241;SDS011;34041;51.812;4.622;2023-12-04T11:05:12;5.65;;;3.95;;
48241;SDS011;34041;51.812;4.622;2023-12-04T11:08:17;9.90;;;4.55;;
48241;SDS011;34041;51.812;4.622;2023-12-04T11:11:24;10.20;;;5.97;;
48241;SDS011;34041;51.812;4.622;2023-12-04T11:14:25;7.07;;;4.45;;
48241;SDS011;34041;51.812;4.622;2023-12-04T11:17:30;8.75;;;4.35;;
48241;SDS011;34041;51.812;4.622;2023-12-04T11:20:33;9.65;;;5.35;;
48241;SDS011;34041;51.812;4.622;2023-12-04T11:23:35;7.80;;;4.13;;
48241;SDS011;34041;51.812;4.622;2023-12-04T11:26:36;8.88;;;5.32;;
48241;SDS011;34041;51.812;4.622;2023-12-04T11:29:37;7.55;;;5.32;;
48241;SDS011;34041;51.812;4.622;2023-12-04T11:32:45;7.57;;;4.30;;
48241;SDS011;34041;51.812;4.622;2023-12-04T11:35:46;9.52;;;4.57;;
48241;SDS011;34041;51.812;4.622;2023-12-04T11:38:46;6.20;;;4.40;;
48241;SDS011;34041;51.812;4.622;2023-12-04T11:41:48;7.88;;;4.43;;
48241;SDS011;34041;51.812;4.622;2023-12-04T11:44:50;7.13;;;4.63;;
48241;SDS011;34041;51.812;4.622;2023-12-04T11:47:56;6.82;;;4.38;;
48241;SDS011;34041;51.812;4.622;2023-12-04T11:50:57;9.60;;;5.22;;
48241;SDS011;34041;51.812;4.622;2023-12-04T11:53:57;6.32;;;4.50;;
48241;SDS011;34041;51.812;4.622;2023-12-04T11:56:58;7.50;;;5.27;;
48241;SDS011;34041;51.812;4.622;2023-12-04T12:03:09;7.60;;;4.03;;
48241;SDS011;34041;51.812;4.622;2023-12-04T12:06:09;5.80;;;4.38;;
48241;SDS011;34041;51.812;4.622;2023-12-04T12:09:10;4.78;;;3.78;;
48241;SDS011;34041;51.812;4.622;2023-12-04T12:12:11;6.18;;;4.30;;
48241;SDS011;34041;51.812;4.622;2023-12-04T12:15:13;6.75;;;4.20;;
48241;SDS011;34041;51.812;4.622;2023-12-04T12:18:13;8.93;;;5.07;;
48241;SDS011;34041;51.812;4.622;2023-12-04T12:21:14;6.57;;;4.00;;
48241;SDS011;34041;51.812;4.622;2023-12-04T12:24:14;6.78;;;4.38;;
48241;SDS011;34041;51.812;4.622;2023-12-04T12:27:14;7.55;;;4.80;;
48241;SDS011;34041;51.812;4.622;2023-12-04T12:30:14;6.43;;;3.97;;
48241;SDS011;34041;51.812;4.622;2023-12-04T12:33:15;6.32;;;4.25;;
48241;SDS011;34041;51.812;4.622;2023-12-04T12:36:16;6.25;;;4.38;;
48241;SDS011;34041;51.812;4.622;2023-12-04T12:39:17;5.88;;;3.90;;
48241;SDS011;34041;51.812;4.622;2023-12-04T12:42:26;8.98;;;5.20;;
48241;SDS011;34041;51.812;4.622;2023-12-04T12:45:27;6.57;;;4.80;;
48241;SDS011;34041;51.812;4.622;2023-12-04T12:48:27;6.23;;;4.37;;
48241;SDS011;34041;51.812;4.622;2023-12-04T12:51:27;7.30;;;4.32;;
48241;SDS011;34041;51.812;4.622;2023-12-04T12:54:28;6.30;;;4.40;;
48241;SDS011;34041;51.812;4.622;2023-12-04T12:57:32;6.75;;;4.53;;
48241;SDS011;34041;51.812;4.622;2023-12-04T13:00:34;8.73;;;4.90;;
48241;SDS011;34041;51.812;4.622;2023-12-04T13:03:34;9.43;;;5.60;;
48241;SDS011;34041;51.812;4.622;2023-12-04T13:06:36;7.03;;;4.75;;
48241;SDS011;34041;51.812;4.622;2023-12-04T13:09:36;9.70;;;5.60;;
48241;SDS011;34041;51.812;4.622;2023-12-04T13:12:36;11.77;;;6.85;;
48241;SDS011;34041;51.812;4.622;2023-12-04T13:15:36;7.32;;;5.22;;
48241;SDS011;34041;51.812;4.622;2023-12-04T13:18:37;7.90;;;6.05;;
48241;SDS011;34041;51.812;4.622;2023-12-04T13:21:38;10.18;;;5.40;;
48241;SDS011;34041;51.812;4.622;2023-12-04T13:24:38;9.10;;;6.87;;
48241;SDS011;34041;51.812;4.622;2023-12-04T13:27:41;9.75;;;6.03;;
48241;SDS011;34041;51.812;4.622;2023-12-04T13:30:41;7.60;;;5.53;;
48241;SDS011;34041;51.812;4.622;2023-12-04T13:33:42;11.48;;;6.47;;
48241;SDS011;34041;51.812;4.622;2023-12-04T13:36:43;12.13;;;6.85;;
48241;SDS011;34041;51.812;4.622;2023-12-04T13:39:44;7.80;;;5.32;;
48241;SDS011;34041;51.812;4.622;2023-12-04T13:42:47;8.93;;;5.07;;
48241;SDS011;34041;51.812;4.622;2023-12-04T13:46:06;7.10;;;5.32;;
48241;SDS011;34041;51.812;4.622;2023-12-04T13:49:09;7.38;;;5.38;;
48241;SDS011;34041;51.812;4.622;2023-12-04T13:52:09;10.13;;;6.03;;
48241;SDS011;34041;51.812;4.622;2023-12-04T13:55:10;10.02;;;7.28;;
48241;SDS011;34041;51.812;4.622;2023-12-04T13:58:21;10.88;;;6.47;;
48241;SDS011;34041;51.812;4.622;2023-12-04T14:01:53;7.97;;;5.20;;
48241;SDS011;34041;51.812;4.622;2023-12-04T14:04:59;8.45;;;4.97;;
48241;SDS011;34041;51.812;4.622;2023-12-04T14:08:00;7.57;;;5.40;;
48241;SDS011;34041;51.812;4.622;2023-12-04T14:11:01;7.70;;;5.32;;
48241;SDS011;34041;51.812;4.622;2023-12-04T14:14:01;8.80;;;6.28;;
48241;SDS011;34041;51.812;4.622;2023-12-04T14:17:01;8.55;;;5.80;;
48241;SDS011;34041;51.812;4.622;2023-12-04T14:20:04;9.80;;;7.97;;
48241;SDS011;34041;51.812;4.622;2023-12-04T14:23:11;10.40;;;7.35;;
48241;SDS011;34041;51.812;4.622;2023-12-04T14:26:11;10.80;;;5.97;;
48241;SDS011;34041;51.812;4.622;2023-12-04T14:29:11;8.88;;;6.57;;
48241;SDS011;34041;51.812;4.622;2023-12-04T14:32:13;7.95;;;5.68;;
48241;SDS011;34041;51.812;4.622;2023-12-04T14:35:14;10.60;;;6.90;;
48241;SDS011;34041;51.812;4.622;2023-12-04T14:38:14;8.68;;;6.55;;
48241;SDS011;34041;51.812;4.622;2023-12-04T14:41:15;9.75;;;7.20;;
48241;SDS011;34041;51.812;4.622;2023-12-04T14:44:15;12.98;;;6.13;;
48241;SDS011;34041;51.812;4.622;2023-12-04T14:47:15;9.55;;;6.65;;
48241;SDS011;34041;51.812;4.622;2023-12-04T14:50:15;11.05;;;7.82;;
48241;SDS011;34041;51.812;4.622;2023-12-04T14:53:16;12.20;;;7.03;;
48241;SDS011;34041;51.812;4.622;2023-12-04T14:56:27;15.20;;;8.40;;
48241;SDS011;34041;51.812;4.622;2023-12-04T14:59:27;9.47;;;7.33;;
48241;SDS011;34041;51.812;4.622;2023-12-04T15:02:46;11.50;;;7.55;;
48241;SDS011;34041;51.812;4.622;2023-12-04T15:05:55;11.88;;;8.60;;
48241;SDS011;34041;51.812;4.622;2023-12-04T15:09:14;11.35;;;8.55;;
48241;SDS011;34041;51.812;4.622;2023-12-04T15:12:32;11.88;;;8.00;;
48241;SDS011;34041;51.812;4.622;2023-12-04T15:15:52;12.18;;;8.38;;
48241;SDS011;34041;51.812;4.622;2023-12-04T15:19:12;11.93;;;7.53;;
48241;SDS011;34041;51.812;4.622;2023-12-04T15:22:50;12.20;;;8.48;;
48241;SDS011;34041;51.812;4.622;2023-12-04T15:25:51;12.45;;;8.18;;
48241;SDS011;34041;51.812;4.622;2023-12-04T15:28:51;11.20;;;8.43;;
48241;SDS011;34041;51.812;4.622;2023-12-04T15:31:51;12.77;;;9.63;;
48241;SDS011;34041;51.812;4.622;2023-12-04T15:34:51;11.83;;;8.47;;
48241;SDS011;34041;51.812;4.622;2023-12-04T15:37:52;15.00;;;9.95;;
48241;SDS011;34041;51.812;4.622;2023-12-04T15:40:52;13.75;;;9.23;;
48241;SDS011;34041;51.812;4.622;2023-12-04T15:43:53;12.50;;;8.90;;
48241;SDS011;34041;51.812;4.622;2023-12-04T15:46:54;14.35;;;10.02;;
48241;SDS011;34041;51.812;4.622;2023-12-04T15:49:54;13.53;;;9.97;;
48241;SDS011;34041;51.812;4.622;2023-12-04T15:52:55;13.07;;;9.55;;
48241;SDS011;34041;51.812;4.622;2023-12-04T15:55:56;12.00;;;9.27;;
48241;SDS011;34041;51.812;4.622;2023-12-04T15:58:56;14.77;;;9.90;;
48241;SDS011;34041;51.812;4.622;2023-12-04T16:01:56;14.82;;;9.90;;
48241;SDS011;34041;51.812;4.622;2023-12-04T16:04:56;12.82;;;9.32;;
48241;SDS011;34041;51.812;4.622;2023-12-04T16:07:56;13.32;;;9.45;;
48241;SDS011;34041;51.812;4.622;2023-12-04T16:10:57;15.15;;;10.32;;
48241;SDS011;34041;51.812;4.622;2023-12-04T16:13:58;18.10;;;12.25;;
48241;SDS011;34041;51.812;4.622;2023-12-04T16:16:58;16.50;;;11.32;;
48241;SDS011;34041;51.812;4.622;2023-12-04T16:19:58;19.07;;;12.47;;
48241;SDS011;34041;51.812;4.622;2023-12-04T16:23:00;13.25;;;9.68;;
48241;SDS011;34041;51.812;4.622;2023-12-04T16:26:00;14.47;;;10.17;;
48241;SDS011;34041;51.812;4.622;2023-12-04T16:29:00;13.83;;;11.73;;
48241;SDS011;34041;51.812;4.622;2023-12-04T16:32:00;15.63;;;11.48;;
48241;SDS011;34041;51.812;4.622;2023-12-04T16:35:00;15.73;;;11.75;;
48241;SDS011;34041;51.812;4.622;2023-12-04T16:38:01;20.35;;;12.18;;
48241;SDS011;34041;51.812;4.622;2023-12-04T16:41:02;14.65;;;11.00;;
48241;SDS011;34041;51.812;4.622;2023-12-04T16:44:02;15.63;;;10.90;;
48241;SDS011;34041;51.812;4.622;2023-12-04T16:47:02;16.90;;;12.30;;
48241;SDS011;34041;51.812;4.622;2023-12-04T16:50:03;16.67;;;11.82;;
48241;SDS011;34041;51.812;4.622;2023-12-04T16:53:05;20.45;;;13.13;;
48241;SDS011;34041;51.812;4.622;2023-12-04T16:56:11;16.80;;;13.30;;
48241;SDS011;34041;51.812;4.622;2023-12-04T16:59:12;17.52;;;14.50;;
48241;SDS011;34041;51.812;4.622;2023-12-04T17:02:13;17.90;;;14.07;;
48241;SDS011;34041;51.812;4.622;2023-12-04T17:05:13;21.63;;;15.50;;
48241;SDS011;34041;51.812;4.622;2023-12-04T17:08:13;20.95;;;15.60;;
48241;SDS011;34041;51.812;4.622;2023-12-04T17:11:13;20.03;;;15.53;;
48241;SDS011;34041;51.812;4.622;2023-12-04T17:14:14;19.83;;;15.55;;
48241;SDS011;34041;51.812;4.622;2023-12-04T17:17:14;20.42;;;15.50;;
48241;SDS011;34041;51.812;4.622;2023-12-04T17:20:14;21.35;;;15.73;;
48241;SDS011;34041;51.812;4.622;2023-12-04T17:23:15;22.58;;;16.70;;
48241;SDS011;34041;51.812;4.622;2023-12-04T17:26:15;22.65;;;16.38;;
48241;SDS011;34041;51.812;4.622;2023-12-04T17:29:15;22.40;;;16.42;;
48241;SDS011;34041;51.812;4.622;2023-12-04T17:32:15;18.83;;;16.00;;
48241;SDS011;34041;51.812;4.622;2023-12-04T17:35:16;21.02;;;16.15;;
48241;SDS011;34041;51.812;4.622;2023-12-04T17:38:16;24.27;;;16.92;;
48241;SDS011;34041;51.812;4.622;2023-12-04T17:41:16;22.70;;;18.63;;
48241;SDS011;34041;51.812;4.622;2023-12-04T17:44:16;24.27;;;17.52;;
48241;SDS011;34041;51.812;4.622;2023-12-04T17:47:17;23.20;;;16.33;;
48241;SDS011;34041;51.812;4.622;2023-12-04T17:50:17;21.40;;;16.97;;
48241;SDS011;34041;51.812;4.622;2023-12-04T17:53:18;24.75;;;18.25;;
48241;SDS011;34041;51.812;4.622;2023-12-04T17:56:18;21.02;;;15.93;;
48241;SDS011;34041;51.812;4.622;2023-12-04T17:59:19;20.13;;;15.27;;
48241;SDS011;34041;51.812;4.622;2023-12-04T18:02:19;19.93;;;17.27;;
48241;SDS011;34041;51.812;4.622;2023-12-04T18:05:19;23.33;;;16.42;;
48241;SDS011;34041;51.812;4.622;2023-12-04T18:08:22;19.58;;;17.10;;